Contact Us:
Email: info@sawbill.com
Phone: (218)663-7150
Fax: (218)663-7980
Mail: 4620 Sawbill Trail
Box 2129
Tofte, MN 55615


Powered by
Movable Type 3.15
 
Sawbill Weather History Archives: September 2011
Current Sawbill Weather History | « August 2011 | October 2011 »


Date

High
Temperature

Low
Temperature

Barometric
Pressure

Relative
Humidity 7AM

9 AM
Temperature

Moisture

Snow

9/30/11 48 29 30.15 76% 30 0
9/29/11 54 42 29.97 80% 42 .21"
9/28/11 69 47 29.47 91% 54 0
9/27/11 72 44 29.92 98% 47 0
9/26/11 67 44 29.83 85% 51 0
9/25/11 59 40 29.91 93% 44 0
9/24/11 58 40 29.94 84% 40 0
9/23/11 50 43 29.97 91% 43 0
9/22/11 45 39 30.03 96% 44 .04"
9/21/11 54 37 29.85 98% 39 .15"
9/20/11 58 46 29.53 98% 50 .6"
9/19/11 62 45 29.77 81% 46 0
9/18/11 52 49 29.80 98% 49 .62"
9/17/11 55 32 29.97 97% 49 .01"
9/16/11 55 30 30.09 74% 32 0
9/15/11 49 30 30.12 77% 30 0
9/14/11 47 34 30.15 93% 35 .11"
9/13/11 56 35 29.91 81% 36 .12"
9/12/11 77 44 29.80 75% 44 .17"
9/11/11 80 51 29.74 68% 52 0
9/10/11 79 54 29.80 76% 61 0
9/9/11 82 54 30.00 74% 54 0
9/8/11 78 57 30.03 72% 61 0
9/7/11 79 46 30.18 92% 57 0
9/6/11 66 41 30.15 87% 51 0
9/5/11 59 39 30.06 78% 41 0
9/4/11 57 41 30.09 76% 42 .05"
9/3/11 71 50 29.80 87% 52 .02"
9/2/11 70 50 29.80 78% 50 0
9/1/11 72 61 29.68 98% 64 .33"
 


Home I Trip Planning I Rentals and Outfitting I Reservations I Campgrounds I Sawbill Store I Sawbill News I Contact

© 1997 - 2017, Sawbill Canoe Outfitters, Inc. I Privacy Policy